This is the latest recevied weather packets stored in our database for station/object CT1ETE-13. If no packets are shown the sender has not sent any weather packets the latest 10 day(s).
| Time | Temp. | Humidity | Pressure | Rain* | Wind** | Luminosity | Snow |
|---|---|---|---|---|---|---|---|
| 1788118907 | 18.89° C | 80% | 1020.9 hPa | 0 mm | - | 1710 W/m² | - |
| 1788118059 | 18.89° C | 78% | 1020.7 hPa | 0 mm | - | 1702 W/m² | - |
| 1788117099 | 19.44° C | 76% | 1020.4 hPa | 0 mm | - | 1688 W/m² | - |
| 1788116199 | 20.56° C | 73% | 1020.4 hPa | 0 mm | - | 1707 W/m² | - |
| 1788115359 | 21.11° C | 69% | 1020.3 hPa | 0 mm | - | 1684 W/m² | - |
| 1788114399 | 21.67° C | 67% | 1020.4 hPa | 0 mm | - | 1680 W/m² | - |
| 1788113499 | 22.22° C | 66% | 1020.3 hPa | 0 mm | - | 1675 W/m² | - |
| 1788112599 | 22.22° C | 64% | 1020.4 hPa | 0 mm | - | 1668 W/m² | - |
| 1788111699 | 22.78° C | 64% | 1020.4 hPa | 0 mm | - | 1638 W/m² | - |
| 1788110799 | 23.33° C | 62% | 1020.4 hPa | 0 mm | - | 1626 W/m² | - |
| 1788109959 | 23.33° C | 61% | 1020.3 hPa | 0 mm | - | 1621 W/m² | - |
| 1788108999 | 23.33° C | 59% | 1020.3 hPa | 0 mm | - | 1614 W/m² | - |
| 1788108099 | 23.33° C | 60% | 1020.2 hPa | 0 mm | - | 1617 W/m² | - |
| 1788107200 | 23.33° C | 60% | 1020.3 hPa | 0 mm | - | 1610 W/m² | - |
| 1788106300 | 23.89° C | 60% | 1020.1 hPa | 0 mm | - | 1605 W/m² | - |
| 1788105397 | 23.89° C | 60% | 1020.2 hPa | 0 mm | - | 1591 W/m² | - |
| 1788104497 | 23.89° C | 59% | 1020.2 hPa | 0 mm | - | 1600 W/m² | - |
| 1788103657 | 24.44° C | 58% | 1020.2 hPa | 0 mm | - | 1598 W/m² | - |
| 1788102697 | 24.44° C | 59% | 1020.2 hPa | 0 mm | - | 1533 W/m² | - |
| 1788101797 | 23.89° C | 58% | 1020.3 hPa | 0 mm | - | 1477 W/m² | - |
| 1788100896 | 24.44° C | 56% | 1020.4 hPa | 0 mm | - | 1438 W/m² | - |
| 1788099996 | 24.44° C | 56% | 1020.4 hPa | 0 mm | - | 1431 W/m² | - |
| 1788099095 | 23.89° C | 55% | 1020.4 hPa | 0.25 mm | - | 1434 W/m² | - |
| 1788098195 | 23.89° C | 55% | 1020.5 hPa | 0.25 mm | - | 1440 W/m² | - |
| 1788097294 | 23.33° C | 59% | 1020.6 hPa | 0.25 mm | - | 1450 W/m² | - |
* Rain latest hour (hover to see other rain measurements)
** Current wind speed in m/s (hover to see current wind gust speed)